Dillingham Airport Dillingham US
ICAO: PADL
IATA:
Category: Medium
Scheduled Services:

Elevation: 81 ft
TransAlt. 18000 ft.

Airport Communications:
ATIS:125
AWOS 3:135.55
ANCHORAGE CNTR:132.75
CTAF:123.6
RDO:122.3

PADL Zoom In..

Runways:

(A) RW 01 length 6400 ft width 150 ft
LOC 111.90 / hdg 11

(B) RW 19 length 6400 ft width 150 ft
LOC 111.90 / hdg 191

Location; PADL
Day. 25 / Time. 11.56 Zulu
* Altimeter: 29.58
* Temperature: 03° c. 37.4°f.
* Wind from: 180° Speed 19 kn.
Dewpoint: 01° c.
Visibility: 10 Statute Miles.
Clouds: Broken 4700 ft.
Clouds: Overcast 9000 ft.

PADL 251156Z AUTO 18019KT 10SM BKN047 OVC090 03/01 A2958 RMK AO2 SLP022 60010 70039 T00330006 10039 20028 51012


Wind From 180°
Speed 19 kn.

  YouTube Music Video
 
jpsmedia.com for Web Design  worldairports.se 2018   terms of use